Time;durP1;ratioP1;P1;durP2;ratioP2;P2;SDS_P1;SDS_P2;PMS_P1;PMS_P2;Temp;Humidity;BMP_temperature;BMP_pressure;BME280_temperature;BME280_humidity;BME280_pressure;Samples;Min_cycle;Max_cycle;Signal;HPM_P1;HPM_P2
2022/01/06 00:00:28;;;;;;;1.50;0.38;;;2.80;92.90;;;;;;6280344;22;20019;-76
2022/01/06 00:02:54;;;;;;;2.00;0.45;;;2.70;92.90;;;;;;6274415;22;20083;-82
2022/01/06 00:05:20;;;;;;;1.50;0.40;;;2.60;92.90;;;;;;6247192;22;20075;-81
2022/01/06 00:07:46;;;;;;;0.40;0.20;;;2.60;92.90;;;;;;6272689;22;20328;-82
2022/01/06 00:10:14;;;;;;;2.20;0.47;;;2.60;92.90;;;;;;6246870;22;20436;-81
2022/01/06 00:12:48;;;;;;;1.33;0.40;;;2.60;92.80;;;;;;6273140;22;20011;-83
2022/01/06 00:23:33;;;;;;;1.00;0.30;;;2.70;92.80;;;;;;6251630;22;20011;-80
2022/01/06 00:26:00;;;;;;;1.00;0.30;;;2.60;92.80;;;;;;6272896;22;20081;-81
2022/01/06 00:28:27;;;;;;;0.45;0.30;;;2.70;92.80;;;;;;6248139;22;20015;-80
2022/01/06 00:30:52;;;;;;;1.65;0.47;;;2.70;92.80;;;;;;6274580;22;20048;-84
2022/01/06 00:33:19;;;;;;;0.98;0.30;;;2.60;92.70;;;;;;6272216;22;20008;-82
2022/01/06 00:35:45;;;;;;;4.28;0.73;;;2.70;92.70;;;;;;6221758;22;20042;-84
2022/01/06 00:38:11;;;;;;;1.95;0.52;;;2.60;92.70;;;;;;6246327;22;20007;-83
2022/01/06 00:40:38;;;;;;;1.75;0.50;;;2.70;92.60;;;;;;6246626;22;19996;-83
2022/01/06 00:43:05;;;;;;;1.38;0.52;;;2.60;92.90;;;;;;6248161;22;20501;-84
2022/01/06 00:45:35;;;;;;;0.75;0.30;;;2.70;92.70;;;;;;6222199;22;20439;-84
2022/01/06 00:48:03;;;;;;;0.32;0.17;;;2.60;92.60;;;;;;6296977;22;20007;-83
2022/01/06 00:50:29;;;;;;;3.38;0.45;;;2.60;92.70;;;;;;6249324;22;20077;-81
2022/01/06 00:52:54;;;;;;;2.03;0.32;;;2.60;92.70;;;;;;6275621;22;19996;-82
2022/01/06 00:55:20;;;;;;;1.88;0.40;;;2.60;92.80;;;;;;6272148;22;20355;-83
2022/01/06 00:57:46;;;;;;;1.02;0.50;;;2.60;92.80;;;;;;6246024;22;20015;-83
2022/01/06 01:00:15;;;;;;;1.55;0.40;;;2.70;92.70;;;;;;6272249;22;20348;-83
2022/01/06 01:02:41;;;;;;;0.77;0.30;;;2.60;93.00;;;;;;6227229;22;20000;-80
2022/01/06 01:05:07;;;;;;;2.05;0.40;;;2.60;92.70;;;;;;6281351;22;20092;-79
2022/01/06 01:07:33;;;;;;;0.98;0.28;;;2.40;92.70;;;;;;6275831;22;20039;-80
2022/01/06 01:09:59;;;;;;;0.70;0.40;;;2.50;92.70;;;;;;6221386;22;20339;-81
2022/01/06 01:12:26;;;;;;;0.75;0.20;;;2.50;92.80;;;;;;6227229;22;20007;-79
2022/01/06 01:14:56;;;;;;;1.58;0.20;;;2.50;92.80;;;;;;6223066;22;20012;-77
2022/01/06 01:17:25;;;;;;;0.98;0.20;;;2.40;92.80;;;;;;6276040;22;20012;-79
2022/01/06 01:19:50;;;;;;;1.23;0.30;;;2.40;92.80;;;;;;6219193;22;20008;-78
2022/01/06 01:22:19;;;;;;;0.32;0.10;;;2.30;92.80;;;;;;6272835;22;20404;-78
2022/01/06 01:24:45;;;;;;;0.70;0.20;;;2.40;92.90;;;;;;6272781;22;20015;-80
2022/01/06 01:27:11;;;;;;;0.98;0.20;;;2.40;92.90;;;;;;6272082;22;20309;-80
2022/01/06 01:29:46;;;;;;;0.82;0.38;;;2.30;92.80;;;;;;6246589;22;20082;-80
2022/01/06 01:32:12;;;;;;;0.30;0.13;;;2.30;92.90;;;;;;6248318;22;20007;-80
2022/01/06 01:34:39;;;;;;;2.70;0.40;;;2.30;92.90;;;;;;6221240;22;20007;-80
2022/01/06 01:37:05;;;;;;;0.52;0.40;;;2.30;92.80;;;;;;6271817;22;20015;-80
2022/01/06 01:39:31;;;;;;;1.00;0.40;;;2.30;92.90;;;;;;6220937;22;20336;-80
2022/01/06 01:41:57;;;;;;;1.20;0.22;;;2.20;92.80;;;;;;6265306;22;20012;-80
2022/01/06 01:44:22;;;;;;;1.05;0.22;;;2.30;92.90;;;;;;6247336;22;20007;-80
2022/01/06 01:49:33;;;;;;;0.90;0.38;;;2.30;92.90;;;;;;6250375;22;20019;-80
2022/01/06 01:51:59;;;;;;;0.75;0.20;;;2.20;92.80;;;;;;6224785;22;20272;-80
2022/01/06 01:54:24;;;;;;;1.02;0.22;;;2.20;92.90;;;;;;6247650;22;20011;-80
2022/01/06 01:56:51;;;;;;;0.45;0.15;;;2.30;92.90;;;;;;6221616;22;20091;-80
2022/01/06 01:59:17;;;;;;;0.57;0.17;;;2.30;93.00;;;;;;6247835;22;19995;-80
2022/01/06 02:01:43;;;;;;;0.52;0.25;;;2.10;92.90;;;;;;6221972;22;20006;-80
2022/01/06 02:04:09;;;;;;;0.65;0.20;;;2.20;92.90;;;;;;6274646;22;20002;-79
2022/01/06 02:06:35;;;;;;;1.73;0.45;;;2.10;92.90;;;;;;6274419;22;20003;-79
2022/01/06 02:09:01;;;;;;;0.63;0.20;;;2.10;92.90;;;;;;6272828;22;20014;-80
2022/01/06 02:11:27;;;;;;;2.13;0.30;;;2.10;92.90;;;;;;6247447;22;20015;-80
2022/01/06 02:13:55;;;;;;;0.38;0.10;;;2.10;92.90;;;;;;6247130;22;20000;-80
2022/01/06 02:16:23;;;;;;;0.20;0.20;;;2.10;92.90;;;;;;6274188;22;20015;-80
2022/01/06 02:18:50;;;;;;;0.50;0.20;;;2.10;93.20;;;;;;6274703;22;20300;-78
2022/01/06 02:21:16;;;;;;;1.08;0.30;;;2.10;92.90;;;;;;6247909;22;20000;-79
2022/01/06 02:23:42;;;;;;;2.15;0.30;;;2.00;92.90;;;;;;6273281;22;20023;-79
2022/01/06 02:26:08;;;;;;;0.35;0.10;;;2.00;92.90;;;;;;6272853;22;20011;-79
2022/01/06 02:28:34;;;;;;;0.05;0.05;;;2.00;92.90;;;;;;6247414;22;20426;-79
2022/01/06 02:31:00;;;;;;;0.98;0.22;;;2.00;93.10;;;;;;6273599;22;20000;-79
2022/01/06 02:33:27;;;;;;;0.65;0.10;;;2.10;93.00;;;;;;6247126;22;20007;-79
2022/01/06 02:35:54;;;;;;;0.10;0.10;;;1.90;93.00;;;;;;6222274;22;20327;-79
2022/01/06 02:38:20;;;;;;;0.38;0.05;;;1.90;93.00;;;;;;6273440;22;20010;-79
2022/01/06 02:40:47;;;;;;;0.30;0.10;;;1.90;93.00;;;;;;6247411;22;20028;-79
2022/01/06 02:43:16;;;;;;;0.52;0.10;;;1.90;93.00;;;;;;6247005;22;20025;-79
2022/01/06 02:45:42;;;;;;;0.35;0.15;;;1.90;93.00;;;;;;6223711;22;19996;-79
2022/01/06 02:48:08;;;;;;;1.50;0.10;;;1.80;93.00;;;;;;6247546;22;20658;-79
2022/01/06 02:50:38;;;;;;;0.32;0.20;;;1.90;93.00;;;;;;6272433;22;20011;-79
2022/01/06 02:53:05;;;;;;;0.10;0.10;;;1.90;93.00;;;;;;6222228;22;19995;-79
2022/01/06 02:55:31;;;;;;;0.00;0.00;;;1.80;93.00;;;;;;6274871;22;20424;-79
2022/01/06 02:57:57;;;;;;;0.32;0.20;;;1.80;93.00;;;;;;6298292;22;20452;-79
2022/01/06 03:00:23;;;;;;;0.10;0.10;;;1.80;93.10;;;;;;6272519;22;20031;-79
2022/01/06 03:02:49;;;;;;;0.28;0.10;;;1.80;93.10;;;;;;6274201;22;20006;-79
2022/01/06 03:05:16;;;;;;;0.95;0.20;;;1.80;93.10;;;;;;6272676;22;20002;-79
2022/01/06 03:07:42;;;;;;;0.20;0.10;;;1.70;93.00;;;;;;6272652;22;20328;-79
2022/01/06 03:10:11;;;;;;;2.03;0.43;;;1.80;93.00;;;;;;6272618;22;20083;-79
2022/01/06 03:12:41;;;;;;;1.33;0.20;;;1.70;93.00;;;;;;6247904;22;20016;-79
2022/01/06 03:15:11;;;;;;;1.02;0.43;;;1.70;93.00;;;;;;6272741;22;20008;-79
2022/01/06 03:17:38;;;;;;;0.55;0.20;;;1.70;93.00;;;;;;6298251;22;20428;-79
2022/01/06 03:20:08;;;;;;;1.35;0.28;;;1.80;93.10;;;;;;6222171;22;20011;-79
2022/01/06 03:22:34;;;;;;;0.10;0.10;;;1.70;93.00;;;;;;6272924;22;20079;-79
2022/01/06 03:25:00;;;;;;;1.75;0.20;;;1.80;92.90;;;;;;6272719;22;20023;-79
2022/01/06 03:27:26;;;;;;;0.35;0.10;;;1.70;92.90;;;;;;6247233;22;20551;-79
2022/01/06 03:29:52;;;;;;;1.00;0.20;;;1.90;93.00;;;;;;6247084;22;19999;-79
2022/01/06 03:32:18;;;;;;;0.22;0.17;;;1.70;92.90;;;;;;6247425;22;20010;-79
2022/01/06 03:34:45;;;;;;;0.47;0.20;;;1.70;92.90;;;;;;6221761;22;20007;-79
2022/01/06 03:37:12;;;;;;;0.80;0.20;;;1.70;92.90;;;;;;6272770;22;20321;-79
2022/01/06 03:39:39;;;;;;;0.63;0.10;;;1.70;92.90;;;;;;6221816;22;20000;-79
2022/01/06 03:42:05;;;;;;;0.63;0.20;;;1.70;92.90;;;;;;6272701;22;20081;-78
2022/01/06 03:44:31;;;;;;;0.98;0.30;;;1.70;93.00;;;;;;6246771;22;20000;-79
2022/01/06 03:46:57;;;;;;;0.85;0.25;;;1.70;92.90;;;;;;6273977;22;20010;-79
2022/01/06 03:49:23;;;;;;;1.08;0.13;;;1.70;92.90;;;;;;6247195;22;19999;-78
2022/01/06 03:51:49;;;;;;;0.52;0.15;;;1.70;92.80;;;;;;6270958;22;20079;-78
2022/01/06 03:54:14;;;;;;;0.00;0.00;;;1.70;92.90;;;;;;6246917;22;20019;-79
2022/01/06 03:56:41;;;;;;;0.60;0.10;;;1.70;92.90;;;;;;6272149;22;20035;-79
2022/01/06 03:59:07;;;;;;;0.28;0.20;;;1.60;92.90;;;;;;6272608;22;20015;-79
2022/01/06 04:01:33;;;;;;;1.02;0.10;;;1.60;92.90;;;;;;6273725;22;20378;-79
2022/01/06 04:04:00;;;;;;;0.80;0.13;;;1.60;93.00;;;;;;6274609;22;20440;-79
2022/01/06 04:06:25;;;;;;;1.00;0.20;;;1.50;93.00;;;;;;6246564;22;20378;-79
2022/01/06 04:08:51;;;;;;;0.47;0.28;;;1.40;93.00;;;;;;6274486;22;19999;-78
2022/01/06 04:11:18;;;;;;;0.65;0.10;;;1.50;93.10;;;;;;6272722;22;20074;-78
2022/01/06 04:13:44;;;;;;;0.45;0.10;;;1.40;93.00;;;;;;6221867;22;20077;-78
2022/01/06 04:16:13;;;;;;;0.00;0.00;;;1.40;93.00;;;;;;6221403;22;20011;-79
2022/01/06 04:18:39;;;;;;;0.30;0.10;;;1.40;93.10;;;;;;6247728;22;20011;-78
2022/01/06 04:21:06;;;;;;;0.08;0.08;;;1.40;93.10;;;;;;6221450;22;20004;-78
2022/01/06 04:23:33;;;;;;;0.10;0.10;;;1.40;93.10;;;;;;6272913;22;20061;-78
2022/01/06 04:25:59;;;;;;;0.52;0.17;;;1.30;93.10;;;;;;6246520;22;20011;-78
2022/01/06 04:28:24;;;;;;;0.30;0.05;;;1.30;93.10;;;;;;6272090;22;20008;-78
2022/01/06 04:30:50;;;;;;;0.10;0.03;;;1.30;93.10;;;;;;6272516;22;20155;-78
2022/01/06 04:33:16;;;;;;;0.38;0.00;;;1.30;93.10;;;;;;6221262;22;20007;-78
2022/01/06 04:35:42;;;;;;;0.30;0.10;;;1.20;93.10;;;;;;6297954;22;20011;-78
2022/01/06 04:38:07;;;;;;;0.15;0.10;;;1.20;93.10;;;;;;6246724;22;20035;-78
2022/01/06 04:40:33;;;;;;;1.33;0.20;;;1.20;93.10;;;;;;6272918;22;20007;-78
2022/01/06 04:42:59;;;;;;;0.10;0.08;;;1.20;93.10;;;;;;6273322;22;19996;-78
2022/01/06 04:45:25;;;;;;;0.00;0.00;;;1.20;93.10;;;;;;6247823;22;20004;-78
2022/01/06 04:47:51;;;;;;;0.13;0.10;;;1.10;93.10;;;;;;6248014;22;20000;-79
2022/01/06 04:50:16;;;;;;;1.25;0.20;;;1.10;93.10;;;;;;6273172;22;20011;-78
2022/01/06 04:52:42;;;;;;;0.80;0.20;;;1.10;93.10;;;;;;6273623;22;20018;-78
2022/01/06 04:55:08;;;;;;;0.45;0.10;;;1.10;93.10;;;;;;6273903;22;20038;-78
2022/01/06 04:57:34;;;;;;;0.05;0.05;;;1.10;93.20;;;;;;6247753;22;20503;-78
2022/01/06 05:00:00;;;;;;;0.00;0.00;;;1.00;93.20;;;;;;6273468;22;20035;-78
2022/01/06 05:02:25;;;;;;;0.00;0.00;;;1.10;93.20;;;;;;6273471;22;20042;-79
2022/01/06 05:04:51;;;;;;;0.20;0.10;;;1.10;93.20;;;;;;6222813;22;20003;-78
2022/01/06 05:07:17;;;;;;;0.40;0.10;;;0.90;93.10;;;;;;6248000;22;20290;-78
2022/01/06 05:09:42;;;;;;;0.22;0.00;;;1.00;93.20;;;;;;6275578;22;20423;-78
2022/01/06 05:12:08;;;;;;;0.17;0.00;;;1.00;93.50;;;;;;6275520;22;20004;-78
2022/01/06 05:14:34;;;;;;;0.15;0.00;;;0.90;93.20;;;;;;6275247;22;20428;-78
2022/01/06 05:17:00;;;;;;;0.03;0.00;;;1.10;93.30;;;;;;6273344;22;20050;-78
2022/01/06 05:19:26;;;;;;;0.10;0.10;;;0.90;93.20;;;;;;6273296;22;19996;-78
2022/01/06 05:21:53;;;;;;;0.10;0.10;;;0.90;93.20;;;;;;6275026;22;20027;-78
2022/01/06 05:24:19;;;;;;;1.27;0.20;;;0.90;93.20;;;;;;6274708;22;20007;-78
2022/01/06 05:26:46;;;;;;;0.13;0.03;;;0.90;93.20;;;;;;6275163;22;20427;-78
2022/01/06 05:29:13;;;;;;;1.35;0.10;;;0.90;93.20;;;;;;6273261;22;20015;-78
2022/01/06 05:31:39;;;;;;;0.10;0.10;;;1.00;93.20;;;;;;6274240;22;20012;-79
2022/01/06 05:34:05;;;;;;;0.15;0.10;;;0.90;93.20;;;;;;6273709;22;20371;-78
2022/01/06 05:36:33;;;;;;;0.22;0.00;;;0.80;93.10;;;;;;6275700;22;20377;-79
2022/01/06 05:38:59;;;;;;;0.10;0.10;;;0.80;93.10;;;;;;6274937;22;20004;-78
2022/01/06 05:41:25;;;;;;;0.75;0.10;;;0.80;93.20;;;;;;6273625;22;20506;-78
2022/01/06 05:43:51;;;;;;;0.05;0.05;;;0.80;93.20;;;;;;6248486;22;20006;-78
2022/01/06 05:46:17;;;;;;;0.10;0.00;;;0.80;93.20;;;;;;6275247;22;20023;-78
2022/01/06 05:48:44;;;;;;;0.10;0.10;;;0.80;93.20;;;;;;6274964;22;20004;-78
2022/01/06 05:51:11;;;;;;;0.10;0.05;;;0.80;93.10;;;;;;6274695;22;20011;-78
2022/01/06 05:53:37;;;;;;;0.10;0.10;;;0.80;93.10;;;;;;6248311;22;20014;-78
2022/01/06 05:56:03;;;;;;;0.00;0.00;;;0.80;93.10;;;;;;6273069;22;20118;-78
2022/01/06 05:58:28;;;;;;;0.20;0.15;;;0.70;93.10;;;;;;6247495;22;20068;-77
2022/01/06 06:00:54;;;;;;;0.00;0.00;;;0.70;93.10;;;;;;6273378;22;20000;-78
2022/01/06 06:03:20;;;;;;;0.03;0.00;;;0.70;93.20;;;;;;6248015;22;20335;-78
2022/01/06 06:05:46;;;;;;;1.30;0.10;;;0.70;93.20;;;;;;6247328;22;20073;-78
2022/01/06 06:08:12;;;;;;;0.20;0.10;;;0.70;93.10;;;;;;6247953;22;20065;-78
2022/01/06 06:10:38;;;;;;;0.10;0.10;;;0.60;93.20;;;;;;6222269;22;20062;-78
2022/01/06 06:13:04;;;;;;;0.00;0.00;;;0.70;93.20;;;;;;6273588;22;20007;-78
2022/01/06 06:15:34;;;;;;;0.85;0.05;;;0.60;93.10;;;;;;6273155;22;20071;-78
2022/01/06 06:18:02;;;;;;;0.10;0.03;;;0.60;93.10;;;;;;6272972;22;20019;-78
2022/01/06 06:20:28;;;;;;;0.10;0.10;;;0.60;93.20;;;;;;6273214;22;20040;-78
2022/01/06 06:22:54;;;;;;;0.05;0.05;;;0.60;93.20;;;;;;6272949;22;20057;-78
2022/01/06 06:25:19;;;;;;;0.30;0.17;;;0.60;93.20;;;;;;6247625;22;20066;-79
2022/01/06 06:27:45;;;;;;;0.35;0.00;;;0.60;93.20;;;;;;6247604;22;20058;-78
2022/01/06 06:30:11;;;;;;;0.00;0.00;;;0.50;93.20;;;;;;6274873;22;20427;-78
2022/01/06 06:32:37;;;;;;;1.10;0.25;;;0.60;93.20;;;;;;6298691;22;20019;-78
2022/01/06 06:35:05;;;;;;;0.52;0.10;;;0.60;93.20;;;;;;6247453;22;20027;-78
2022/01/06 06:37:31;;;;;;;0.65;0.10;;;0.60;93.20;;;;;;6273159;22;20157;-78
2022/01/06 06:39:57;;;;;;;0.10;0.10;;;0.50;93.10;;;;;;6222229;22;20443;-78
2022/01/06 06:42:24;;;;;;;0.10;0.10;;;0.50;93.40;;;;;;6275094;22;20007;-78
2022/01/06 06:44:50;;;;;;;0.25;0.03;;;0.60;93.40;;;;;;6298792;22;20038;-78
2022/01/06 06:47:17;;;;;;;0.05;0.00;;;0.50;93.10;;;;;;6222302;22;20007;-78
2022/01/06 06:49:43;;;;;;;0.10;0.10;;;0.50;93.10;;;;;;6275164;22;20004;-78
2022/01/06 06:52:09;;;;;;;0.10;0.10;;;0.50;93.10;;;;;;6248701;22;20466;-77
2022/01/06 06:54:35;;;;;;;0.57;0.25;;;0.50;93.20;;;;;;6276162;22;20061;-78
2022/01/06 06:57:01;;;;;;;0.90;0.13;;;0.50;93.20;;;;;;6310152;22;20478;-81
2022/01/06 06:59:27;;;;;;;0.40;0.20;;;0.50;93.20;;;;;;6275102;22;20111;-82
2022/01/06 07:01:53;;;;;;;0.20;0.10;;;0.50;93.20;;;;;;6221826;22;20090;-83
2022/01/06 07:04:18;;;;;;;0.40;0.08;;;0.40;93.10;;;;;;6274386;22;20000;-83
2022/01/06 07:06:44;;;;;;;0.35;0.20;;;0.50;93.20;;;;;;6247393;22;20007;-83
2022/01/06 07:09:10;;;;;;;0.10;0.10;;;0.50;93.10;;;;;;6248094;22;20078;-83
2022/01/06 07:11:37;;;;;;;0.03;0.03;;;0.50;93.10;;;;;;6222006;22;20007;-83
2022/01/06 07:14:03;;;;;;;0.00;0.00;;;0.40;93.10;;;;;;6247579;22;20621;-83
2022/01/06 07:16:29;;;;;;;0.00;0.00;;;0.50;93.20;;;;;;6222099;22;20420;-83
2022/01/06 07:18:54;;;;;;;0.03;0.03;;;0.40;93.10;;;;;;6247442;22;20065;-83
2022/01/06 07:21:20;;;;;;;0.63;0.05;;;0.40;93.10;;;;;;6247864;22;20007;-82
2022/01/06 07:23:46;;;;;;;0.10;0.10;;;0.40;93.10;;;;;;6222128;22;19995;-83
2022/01/06 07:26:12;;;;;;;0.00;0.00;;;0.40;93.10;;;;;;6273508;22;20007;-82
2022/01/06 07:28:38;;;;;;;0.20;0.00;;;0.40;93.10;;;;;;6272962;22;20006;-83
2022/01/06 07:31:04;;;;;;;0.00;0.00;;;0.30;93.10;;;;;;6247213;22;20008;-82
2022/01/06 07:33:31;;;;;;;0.47;0.10;;;0.30;93.20;;;;;;6247780;22;20003;-82
2022/01/06 07:35:57;;;;;;;0.80;0.20;;;0.30;93.20;;;;;;6248471;22;20038;-82
2022/01/06 07:38:23;;;;;;;0.15;0.10;;;0.30;93.20;;;;;;6272780;22;19999;-80
2022/01/06 07:40:49;;;;;;;0.20;0.10;;;0.30;93.20;;;;;;6274426;22;20141;-80
2022/01/06 07:43:15;;;;;;;0.00;0.00;;;0.30;93.10;;;;;;6272643;22;20004;-80
2022/01/06 07:45:41;;;;;;;0.00;0.00;;;0.30;93.20;;;;;;6247374;22;20000;-80
2022/01/06 07:48:16;;;;;;;0.38;0.00;;;0.20;93.20;;;;;;6247136;22;20451;-80
2022/01/06 07:50:43;;;;;;;0.10;0.10;;;0.30;93.20;;;;;;6272775;22;20003;-81
2022/01/06 07:53:09;;;;;;;0.00;0.00;;;0.20;93.20;;;;;;6246762;22;20370;-81
2022/01/06 07:55:35;;;;;;;0.00;0.00;;;0.30;93.20;;;;;;6247169;22;20486;-80
2022/01/06 07:58:01;;;;;;;0.00;0.00;;;0.30;93.20;;;;;;6273145;22;20031;-80
2022/01/06 08:00:27;;;;;;;0.55;0.10;;;0.20;93.20;;;;;;6247056;22;19992;-80
2022/01/06 08:02:53;;;;;;;0.10;0.10;;;0.40;93.20;;;;;;6247284;22;20000;-80
2022/01/06 08:05:22;;;;;;;0.10;0.05;;;0.20;93.10;;;;;;6273153;22;20000;-81
2022/01/06 08:07:48;;;;;;;1.13;0.17;;;0.30;93.20;;;;;;6298565;22;20039;-80
2022/01/06 08:10:13;;;;;;;0.10;0.10;;;0.30;93.20;;;;;;6247182;22;20010;-80
2022/01/06 08:12:39;;;;;;;0.00;0.00;;;0.30;93.20;;;;;;6272686;22;20034;-81
2022/01/06 08:15:06;;;;;;;0.10;0.10;;;0.40;93.20;;;;;;6274585;22;20427;-81
2022/01/06 08:17:32;;;;;;;0.17;0.10;;;0.40;93.10;;;;;;6247396;22;20042;-81
2022/01/06 08:19:58;;;;;;;0.08;0.08;;;0.40;93.10;;;;;;6273089;22;20428;-80
2022/01/06 08:22:23;;;;;;;0.40;0.15;;;0.40;93.10;;;;;;6222030;22;20086;-81
2022/01/06 08:24:52;;;;;;;0.10;0.10;;;0.40;93.10;;;;;;6246965;22;20000;-81
2022/01/06 08:27:18;;;;;;;0.10;0.00;;;0.40;93.00;;;;;;6272715;22;20452;-80
2022/01/06 08:29:44;;;;;;;0.08;0.08;;;0.40;93.00;;;;;;6298096;22;20443;-80
2022/01/06 08:32:09;;;;;;;0.80;0.22;;;0.50;93.10;;;;;;6274526;22;19999;-80
2022/01/06 08:34:36;;;;;;;0.15;0.10;;;0.40;93.00;;;;;;6272433;22;20034;-81
2022/01/06 08:37:02;;;;;;;0.10;0.10;;;0.40;93.10;;;;;;6266239;22;20011;-80
2022/01/06 08:39:28;;;;;;;0.10;0.10;;;0.40;93.10;;;;;;6246727;22;19995;-81
2022/01/06 08:41:54;;;;;;;0.00;0.00;;;0.50;93.10;;;;;;6272365;22;20073;-80
2022/01/06 08:44:21;;;;;;;0.25;0.10;;;0.40;93.00;;;;;;6247002;22;20428;-81
2022/01/06 08:46:48;;;;;;;0.17;0.17;;;0.50;93.10;;;;;;6246837;22;20054;-80
2022/01/06 08:49:15;;;;;;;0.20;0.10;;;0.60;93.10;;;;;;6272491;22;19999;-81
2022/01/06 08:51:42;;;;;;;0.03;0.03;;;0.60;93.00;;;;;;6272229;22;20007;-81
2022/01/06 08:54:08;;;;;;;0.00;0.00;;;0.60;93.10;;;;;;6272458;22;20354;-80
2022/01/06 08:56:35;;;;;;;0.10;0.10;;;0.70;93.00;;;;;;6246509;22;20008;-81
2022/01/06 08:59:01;;;;;;;0.13;0.10;;;0.70;93.00;;;;;;6246442;22;20057;-81
2022/01/06 09:01:27;;;;;;;0.00;0.00;;;0.80;93.00;;;;;;6246728;22;20440;-81
2022/01/06 09:03:53;;;;;;;0.28;0.10;;;0.80;92.90;;;;;;6272226;22;20331;-81
2022/01/06 09:06:20;;;;;;;0.55;0.20;;;0.90;92.90;;;;;;6298384;22;20004;-81
2022/01/06 09:08:46;;;;;;;0.08;0.08;;;0.90;92.90;;;;;;6272414;22;20000;-81
2022/01/06 09:11:12;;;;;;;0.47;0.25;;;0.90;92.80;;;;;;6272264;22;20004;-81
2022/01/06 09:13:38;;;;;;;0.17;0.10;;;1.00;92.90;;;;;;6246774;22;20014;-81
2022/01/06 09:16:08;;;;;;;0.68;0.10;;;1.00;92.80;;;;;;6246612;22;20007;-81
2022/01/06 09:18:34;;;;;;;0.80;0.10;;;1.10;92.80;;;;;;6222928;22;20000;-80
2022/01/06 09:21:00;;;;;;;0.60;0.10;;;1.10;92.80;;;;;;6246877;22;19995;-82
2022/01/06 09:23:25;;;;;;;0.22;0.20;;;1.20;92.80;;;;;;6272172;22;19996;-81
2022/01/06 09:25:52;;;;;;;0.20;0.20;;;1.20;92.70;;;;;;6272626;22;20007;-81
2022/01/06 09:28:18;;;;;;;0.05;0.05;;;1.30;92.70;;;;;;6247622;22;20074;-81
2022/01/06 09:30:44;;;;;;;1.27;0.20;;;1.30;92.70;;;;;;6273452;22;20493;-81
2022/01/06 09:33:09;;;;;;;0.35;0.15;;;1.40;92.70;;;;;;6247827;22;20000;-81
2022/01/06 09:35:35;;;;;;;0.10;0.10;;;1.40;92.70;;;;;;6247964;22;20086;-81
2022/01/06 09:38:01;;;;;;;0.10;0.10;;;1.40;92.60;;;;;;6273653;22;20089;-81
2022/01/06 09:40:27;;;;;;;0.85;0.30;;;1.50;92.70;;;;;;6274195;22;20079;-81
2022/01/06 09:42:55;;;;;;;0.32;0.20;;;1.50;92.60;;;;;;6267027;22;20374;-81
2022/01/06 09:45:24;;;;;;;0.43;0.20;;;1.50;92.60;;;;;;6249336;22;20060;-81
2022/01/06 09:47:51;;;;;;;0.32;0.20;;;1.60;92.60;;;;;;6251605;22;20003;-81
2022/01/06 09:50:16;;;;;;;0.40;0.10;;;1.70;92.60;;;;;;6281832;22;20000;-81
2022/01/06 09:52:42;;;;;;;1.75;0.22;;;1.70;92.60;;;;;;6258425;22;20006;-80
2022/01/06 09:55:09;;;;;;;0.52;0.28;;;1.80;92.50;;;;;;6263477;22;20000;-80
2022/01/06 09:57:35;;;;;;;0.77;0.20;;;1.90;92.50;;;;;;6288582;22;19999;-80
2022/01/06 10:00:04;;;;;;;1.25;0.30;;;1.90;92.50;;;;;;6284753;22;19995;-81
2022/01/06 10:02:35;;;;;;;1.27;0.20;;;1.90;92.50;;;;;;6292073;22;20000;-81
2022/01/06 10:05:02;;;;;;;1.50;0.30;;;1.90;92.50;;;;;;6239153;22;19995;-82
2022/01/06 10:07:35;;;;;;;1.75;0.20;;;2.00;92.50;;;;;;6316542;22;20031;-81
2022/01/06 10:10:07;;;;;;;0.50;0.30;;;2.10;92.40;;;;;;6291629;22;20023;-81
2022/01/06 10:12:33;;;;;;;0.50;0.30;;;2.10;92.40;;;;;;6292900;22;20000;-82
2022/01/06 10:15:00;;;;;;;1.20;0.30;;;2.20;92.40;;;;;;6267176;22;20027;-81
2022/01/06 10:17:33;;;;;;;0.45;0.13;;;2.30;92.70;;;;;;6266864;22;20008;-81
2022/01/06 10:20:15;;;;;;;0.30;0.28;;;2.30;92.30;;;;;;6291945;22;19996;-81
2022/01/06 10:22:46;;;;;;;;;;;2.30;92.30;;;;;;6289560;22;20423;-82
2022/01/06 10:25:13;;;;;;;0.75;0.30;;;2.40;92.30;;;;;;6288580;22;19900;-82
2022/01/06 10:27:41;;;;;;;0.45;0.20;;;2.50;92.30;;;;;;6281772;22;20026;-82
2022/01/06 10:30:08;;;;;;;0.88;0.40;;;2.50;92.20;;;;;;6234816;22;20000;-82
2022/01/06 10:32:37;;;;;;;2.08;0.55;;;2.60;92.20;;;;;;6256961;22;20027;-82
2022/01/06 10:35:04;;;;;;;0.77;0.40;;;2.70;92.20;;;;;;6261033;22;20004;-82
2022/01/06 10:37:38;;;;;;;0.35;0.10;;;2.70;92.20;;;;;;6255237;22;20435;-82
2022/01/06 10:40:08;;;;;;;1.42;0.25;;;2.80;92.20;;;;;;6285083;22;20084;-81
2022/01/06 10:42:36;;;;;;;0.20;0.20;;;2.90;92.10;;;;;;6284240;22;20050;-81
2022/01/06 10:45:09;;;;;;;1.45;0.43;;;2.90;92.10;;;;;;6224842;22;20022;-82
2022/01/06 10:47:37;;;;;;;1.88;0.38;;;3.00;92.00;;;;;;6279266;22;20432;-81
2022/01/06 10:50:16;;;;;;;2.53;0.40;;;3.10;92.10;;;;;;6252093;22;20087;-81
2022/01/06 10:52:47;;;;;;;0.47;0.32;;;3.20;92.10;;;;;;6277990;22;20023;-81
2022/01/06 10:55:19;;;;;;;0.50;0.40;;;3.30;92.00;;;;;;6228004;22;20000;-81
2022/01/06 10:57:58;;;;;;;0.55;0.40;;;3.20;92.00;;;;;;6254003;22;20021;-81
2022/01/06 11:00:27;;;;;;;0.57;0.30;;;3.40;92.00;;;;;;6283147;22;19992;-81
2022/01/06 11:03:11;;;;;;;0.35;0.30;;;3.40;91.90;;;;;;6279270;22;20003;-81
2022/01/06 11:05:39;;;;;;;1.00;0.30;;;3.50;91.90;;;;;;6276780;22;20046;-81
2022/01/06 11:08:07;;;;;;;0.57;0.30;;;3.50;91.80;;;;;;6251240;22;20002;-81
2022/01/06 11:10:37;;;;;;;6.10;0.77;;;3.70;91.80;;;;;;6252871;22;20000;-81
2022/01/06 11:13:04;;;;;;;1.30;0.60;;;3.70;91.80;;;;;;6278749;22;20021;-81
2022/01/06 11:15:32;;;;;;;2.05;0.60;;;3.70;91.80;;;;;;6286660;22;20034;-81
2022/01/06 11:18:00;;;;;;;2.88;0.40;;;3.80;91.80;;;;;;6275896;22;20436;-81
2022/01/06 11:20:28;;;;;;;1.35;0.55;;;3.80;91.80;;;;;;6275350;22;20078;-81
2022/01/06 11:22:56;;;;;;;1.05;0.45;;;4.00;91.80;;;;;;6274791;22;20004;-82
2022/01/06 11:25:39;;;;;;;0.50;0.43;;;4.00;91.80;;;;;;6277342;22;20004;-81
2022/01/06 11:28:11;;;;;;;1.20;0.52;;;4.00;91.70;;;;;;6247313;22;20026;-82
2022/01/06 11:30:43;;;;;;;0.95;0.30;;;4.10;91.70;;;;;;6300143;22;20011;-81
2022/01/06 11:33:09;;;;;;;1.80;0.47;;;4.10;91.70;;;;;;6248893;22;20079;-81
2022/01/06 11:35:51;;;;;;;0.85;0.38;;;4.10;91.70;;;;;;6299429;22;20015;-81
2022/01/06 11:38:19;;;;;;;;;;;4.30;91.70;;;;;;6289180;22;20419;-80
2022/01/06 11:40:47;;;;;;;2.63;0.52;;;4.30;91.60;;;;;;6289890;22;19911;-80
2022/01/06 11:43:13;;;;;;;1.65;0.63;;;4.40;91.60;;;;;;6279691;22;20420;-80
2022/01/06 11:45:39;;;;;;;1.45;0.43;;;4.40;91.50;;;;;;6273265;22;20003;-81
2022/01/06 11:48:07;;;;;;;1.40;0.50;;;4.50;91.50;;;;;;6273724;22;20008;-80
2022/01/06 11:50:38;;;;;;;1.27;0.50;;;4.50;91.50;;;;;;6247871;22;20003;-79
2022/01/06 11:53:04;;;;;;;1.70;0.85;;;4.60;91.50;;;;;;6274619;22;20316;-80
2022/01/06 11:55:35;;;;;;;0.82;0.60;;;4.70;91.50;;;;;;6247905;22;20039;-80
2022/01/06 11:58:11;;;;;;;3.20;0.70;;;4.80;91.40;;;;;;6222379;22;20015;-80
2022/01/06 12:00:39;;;;;;;1.83;0.70;;;4.80;91.40;;;;;;6298565;22;20008;-80
2022/01/06 12:03:09;;;;;;;1.95;0.75;;;4.90;91.40;;;;;;6274280;22;19999;-80
2022/01/06 12:05:52;;;;;;;2.53;0.80;;;5.00;91.40;;;;;;6298866;22;20003;-80
2022/01/06 12:08:32;;;;;;;1.25;0.70;;;5.10;91.40;;;;;;6274262;22;20004;-80
2022/01/06 12:10:58;;;;;;;1.33;0.70;;;5.10;91.30;;;;;;6246942;22;20428;-80
2022/01/06 12:13:24;;;;;;;1.73;0.50;;;5.30;91.30;;;;;;6221693;22;20018;-80
2022/01/06 12:15:52;;;;;;;1.08;0.47;;;5.40;91.30;;;;;;6221988;22;20320;-80
2022/01/06 12:18:21;;;;;;;1.80;0.70;;;5.40;91.20;;;;;;6246844;22;20050;-80
2022/01/06 12:20:48;;;;;;;1.00;0.50;;;5.50;91.20;;;;;;6272593;22;20027;-80
2022/01/06 12:23:15;;;;;;;2.25;0.80;;;5.50;91.10;;;;;;6222029;22;19996;-80
2022/01/06 12:25:41;;;;;;;0.52;0.40;;;5.60;91.10;;;;;;6247016;22;20008;-80
2022/01/06 12:28:10;;;;;;;1.88;0.60;;;5.70;91.10;;;;;;6247762;22;20158;-80
2022/01/06 12:30:38;;;;;;;0.88;0.40;;;5.80;91.10;;;;;;6273206;22;20000;-80
2022/01/06 12:33:07;;;;;;;1.10;0.57;;;5.90;91.10;;;;;;6272621;22;20079;-80
2022/01/06 12:35:38;;;;;;;1.25;0.70;;;5.80;91.00;;;;;;6298810;22;20438;-79
2022/01/06 12:38:04;;;;;;;1.45;0.68;;;5.90;91.00;;;;;;6273486;22;20064;-79
2022/01/06 12:40:36;;;;;;;1.38;0.70;;;6.00;91.00;;;;;;6272609;22;20054;-80
2022/01/06 12:43:18;;;;;;;1.40;0.60;;;6.00;90.90;;;;;;6246507;22;20034;-79
2022/01/06 12:45:45;;;;;;;1.42;0.68;;;6.10;90.90;;;;;;6298208;22;20446;-79
2022/01/06 12:48:13;;;;;;;1.75;0.47;;;6.10;90.90;;;;;;6247432;22;20008;-79
2022/01/06 12:50:45;;;;;;;1.55;0.77;;;6.20;90.90;;;;;;6274164;22;20062;-79
2022/01/06 12:53:22;;;;;;;0.80;0.50;;;6.20;90.90;;;;;;6276122;22;20008;-79
2022/01/06 12:55:48;;;;;;;1.88;0.70;;;6.30;90.90;;;;;;6299278;22;20014;-79
2022/01/06 12:58:28;;;;;;;3.03;0.80;;;6.30;90.80;;;;;;6275330;22;20044;-79
2022/01/06 13:00:55;;;;;;;2.65;0.90;;;6.40;91.10;;;;;;6250498;22;20078;-79
2022/01/06 13:03:34;;;;;;;1.95;0.68;;;6.40;90.80;;;;;;6224993;22;20439;-79
2022/01/06 13:06:02;;;;;;;2.05;0.70;;;6.50;90.80;;;;;;6276421;22;20062;-79
2022/01/06 13:08:29;;;;;;;0.60;0.43;;;6.50;90.80;;;;;;6276392;22;20002;-80